createdAt,value
2019-05-14T00:00:36.954Z,11.92
2019-05-14T00:03:02.464Z,11.21
2019-05-14T00:05:27.117Z,11.57
2019-05-14T00:07:52.222Z,11.17
2019-05-14T00:10:17.415Z,11.54
2019-05-14T00:12:42.049Z,11.54
2019-05-14T00:15:06.856Z,11.56
2019-05-14T00:17:31.911Z,11.56
2019-05-14T00:20:07.262Z,11.34
2019-05-14T00:22:22.754Z,11.58
2019-05-14T00:24:47.260Z,10.89
2019-05-14T00:27:11.937Z,11.30
2019-05-14T00:29:36.408Z,11.57
2019-05-14T00:32:01.924Z,11.33
2019-05-14T00:34:26.535Z,10.55
2019-05-14T00:36:52.436Z,10.80
2019-05-14T00:39:17.038Z,11.19
2019-05-14T00:41:42.178Z,11.27
2019-05-14T00:44:06.622Z,11.28
2019-05-14T00:46:31.588Z,11.19
2019-05-14T00:48:56.039Z,10.79
2019-05-14T00:51:21.507Z,10.69
2019-05-14T00:53:46.092Z,10.96
2019-05-14T00:56:11.113Z,11.22
2019-05-14T00:58:35.690Z,10.91
2019-05-14T01:01:01.607Z,10.45
2019-05-14T01:03:26.402Z,10.83
2019-05-14T01:05:52.337Z,10.88
2019-05-14T01:08:17.004Z,10.93
2019-05-14T01:10:41.833Z,10.90
2019-05-14T01:13:06.399Z,10.99
2019-05-14T01:15:32.246Z,9.99
2019-05-14T01:17:57.135Z,9.53
2019-05-14T01:20:22.041Z,10.44
2019-05-14T01:22:46.554Z,10.52
2019-05-14T01:25:12.013Z,10.08
2019-05-14T01:27:36.676Z,10.38
2019-05-14T01:30:02.089Z,10.32
2019-05-14T01:32:26.956Z,10.23
2019-05-14T01:34:52.147Z,10.47
2019-05-14T01:37:16.831Z,10.25
2019-05-14T01:39:42.031Z,10.48
2019-05-14T01:42:06.670Z,10.22
2019-05-14T01:44:31.921Z,10.53
2019-05-14T01:46:56.664Z,10.61
2019-05-14T01:49:22.095Z,10.49
2019-05-14T01:51:46.937Z,10.36
2019-05-14T01:54:11.991Z,10.38
2019-05-14T01:56:36.658Z,10.31
2019-05-14T01:59:01.696Z,10.39
2019-05-14T02:01:26.523Z,10.12
2019-05-14T02:03:51.785Z,10.22
2019-05-14T02:06:16.413Z,10.14
2019-05-14T02:08:41.431Z,10.28
2019-05-14T02:11:06.110Z,10.04
2019-05-14T02:13:32.223Z,9.96
2019-05-14T02:15:56.891Z,10.02
2019-05-14T02:18:21.848Z,9.91
2019-05-14T02:20:46.381Z,9.99
2019-05-14T02:23:12.007Z,9.81
2019-05-14T02:25:36.597Z,9.96
2019-05-14T02:28:01.440Z,9.80
2019-05-14T02:30:38.498Z,9.93
2019-05-14T02:32:52.423Z,9.81
2019-05-14T02:35:19.959Z,9.95
2019-05-14T02:37:43.229Z,9.76
2019-05-14T02:40:09.837Z,9.15
2019-05-14T02:42:34.574Z,9.68
2019-05-14T02:44:59.489Z,9.57
2019-05-14T02:47:24.138Z,9.51
2019-05-14T02:49:50.192Z,9.70
2019-05-14T02:52:15.417Z,9.54
2019-05-14T02:54:41.610Z,9.51
2019-05-14T02:57:09.837Z,9.33
2019-05-14T02:59:32.370Z,9.29
2019-05-14T03:01:59.170Z,9.11
2019-05-14T03:04:23.196Z,9.25
2019-05-14T03:06:49.853Z,9.26
2019-05-14T03:09:13.954Z,9.39
2019-05-14T03:11:40.434Z,9.20
2019-05-14T03:14:04.855Z,9.09
2019-05-14T03:16:35.302Z,9.20
2019-05-14T03:18:55.701Z,9.04
2019-05-14T03:21:20.314Z,9.31
2019-05-14T03:23:44.928Z,9.23
2019-05-14T03:26:09.847Z,8.84
2019-05-14T03:28:34.596Z,8.85
2019-05-14T03:31:03.204Z,9.19
2019-05-14T03:33:25.270Z,9.02
2019-05-14T03:35:58.062Z,9.16
2019-05-14T03:38:16.277Z,8.99
2019-05-14T03:40:40.742Z,9.10
2019-05-14T03:43:05.332Z,9.13
2019-05-14T03:45:30.775Z,9.29
2019-05-14T03:47:55.300Z,9.25
2019-05-14T03:50:19.805Z,9.22
2019-05-14T03:52:44.296Z,9.00
2019-05-14T03:55:09.557Z,8.87
2019-05-14T03:57:34.469Z,8.98
2019-05-14T04:00:00.036Z,8.91
2019-05-14T04:02:25.027Z,8.78
2019-05-14T04:04:50.408Z,8.94
2019-05-14T04:07:19.388Z,9.17
2019-05-14T04:09:45.205Z,9.11
2019-05-14T04:12:10.494Z,9.18
2019-05-14T04:14:36.222Z,9.05
2019-05-14T04:17:10.015Z,8.71
2019-05-14T04:19:29.879Z,8.97
2019-05-14T04:21:55.525Z,8.86
2019-05-14T04:24:22.991Z,9.27
2019-05-14T04:26:58.211Z,9.16
2019-05-14T04:29:19.701Z,9.06
2019-05-14T04:31:50.141Z,9.13
2019-05-14T04:34:14.618Z,9.13
2019-05-14T04:36:39.443Z,9.28
2019-05-14T04:39:09.188Z,9.28
2019-05-14T04:41:31.909Z,9.23
2019-05-14T04:43:59.447Z,8.93
2019-05-14T04:46:22.715Z,9.42
2019-05-14T04:48:50.556Z,9.46
2019-05-14T04:51:13.455Z,9.39
2019-05-14T04:53:39.361Z,9.52
2019-05-14T04:56:04.325Z,9.60
2019-05-14T04:58:29.897Z,9.58
2019-05-14T05:00:54.613Z,9.79
2019-05-14T05:03:20.067Z,9.60
2019-05-14T05:05:49.738Z,9.63
2019-05-14T05:08:14.328Z,9.78
2019-05-14T05:10:39.865Z,9.99
2019-05-14T05:13:04.482Z,10.07
2019-05-14T05:15:29.218Z,9.76
2019-05-14T05:17:53.649Z,10.05
2019-05-14T05:20:19.302Z,9.81
2019-05-14T05:22:43.870Z,9.73
2019-05-14T05:25:08.480Z,9.45
2019-05-14T05:27:32.995Z,9.95
2019-05-14T05:29:58.962Z,9.73
2019-05-14T05:32:23.609Z,9.76
2019-05-14T05:34:48.421Z,9.85
2019-05-14T05:37:12.960Z,10.29
2019-05-14T05:39:38.688Z,10.23
2019-05-14T05:42:03.410Z,10.11
2019-05-14T05:44:28.778Z,10.08
2019-05-14T05:46:53.377Z,10.36
2019-05-14T05:49:18.697Z,10.26
2019-05-14T05:51:43.474Z,10.15
2019-05-14T05:54:09.229Z,10.72
2019-05-14T05:56:33.823Z,10.81
2019-05-14T05:59:00.584Z,11.05
2019-05-14T06:01:39.460Z,10.93
2019-05-14T06:03:50.918Z,11.13
2019-05-14T06:06:15.399Z,10.85
2019-05-14T06:08:39.921Z,11.14
2019-05-14T06:11:04.449Z,11.09
2019-05-14T06:13:28.966Z,10.84
2019-05-14T06:15:53.429Z,10.96
2019-05-14T06:18:21.674Z,11.31
2019-05-14T06:20:44.013Z,11.11
2019-05-14T06:23:08.620Z,10.92
2019-05-14T06:25:33.133Z,11.24
2019-05-14T06:27:59.025Z,11.66
2019-05-14T06:30:32.313Z,11.61
2019-05-14T06:32:59.262Z,11.49
2019-05-14T06:35:22.992Z,11.43
2019-05-14T06:37:48.977Z,11.50
2019-05-14T06:40:13.695Z,11.52
2019-05-14T06:42:39.452Z,11.56
2019-05-14T06:45:05.395Z,11.60
2019-05-14T06:47:29.937Z,12.01
2019-05-14T06:49:54.386Z,12.40
2019-05-14T06:52:18.985Z,12.40
2019-05-14T06:54:43.424Z,12.36
2019-05-14T06:57:09.042Z,12.51
2019-05-14T06:59:33.686Z,12.33
2019-05-14T07:01:58.268Z,12.25
2019-05-14T07:04:22.674Z,12.33
2019-05-14T07:06:48.519Z,12.56
2019-05-14T07:09:13.277Z,12.59
2019-05-14T07:11:38.862Z,12.83
2019-05-14T07:14:03.895Z,12.49
2019-05-14T07:16:28.860Z,12.84
2019-05-14T07:18:54.376Z,12.89
2019-05-14T07:21:18.911Z,12.52
2019-05-14T07:23:43.380Z,12.85
2019-05-14T07:26:08.574Z,13.07
2019-05-14T07:28:33.222Z,13.20
2019-05-14T07:30:59.241Z,13.14
2019-05-14T07:33:25.417Z,13.35
2019-05-14T07:35:50.094Z,13.20
2019-05-14T07:38:14.582Z,13.46
2019-05-14T07:40:39.333Z,13.38
2019-05-14T07:43:03.879Z,13.48
2019-05-14T07:45:28.699Z,13.24
2019-05-14T07:47:53.464Z,13.38
2019-05-14T07:50:19.585Z,13.71
2019-05-14T07:52:45.991Z,13.48
2019-05-14T07:55:10.793Z,13.68
2019-05-14T07:57:35.299Z,13.55
2019-05-14T07:59:59.783Z,13.86
2019-05-14T08:02:24.219Z,13.58
2019-05-14T08:04:48.847Z,13.47
2019-05-14T08:07:13.440Z,13.87
2019-05-14T08:09:38.989Z,14.06
2019-05-14T08:12:03.850Z,13.92
2019-05-14T08:14:29.369Z,13.83
2019-05-14T08:16:54.467Z,13.99
2019-05-14T08:19:26.473Z,13.88
2019-05-14T08:21:45.228Z,13.84
2019-05-14T08:24:09.700Z,14.08
2019-05-14T08:26:34.149Z,14.07
2019-05-14T08:28:58.634Z,13.66
2019-05-14T08:31:23.152Z,14.31
2019-05-14T08:33:48.836Z,14.34
2019-05-14T08:36:13.903Z,14.44
2019-05-14T08:38:38.563Z,14.75
2019-05-14T08:41:03.249Z,14.38
2019-05-14T08:43:29.198Z,14.35
2019-05-14T08:45:53.859Z,14.59
2019-05-14T08:48:19.054Z,14.51
2019-05-14T08:50:43.833Z,14.84
2019-05-14T08:53:09.045Z,14.93
2019-05-14T08:55:33.782Z,15.07
2019-05-14T08:57:59.244Z,14.59
2019-05-14T09:00:24.030Z,14.84
2019-05-14T09:02:48.779Z,14.68
2019-05-14T09:05:13.495Z,15.20
2019-05-14T09:07:38.488Z,15.68
2019-05-14T09:10:03.177Z,15.99
2019-05-14T09:12:28.158Z,15.43
2019-05-14T09:14:52.679Z,15.67
2019-05-14T09:17:18.579Z,15.63
2019-05-14T09:19:57.856Z,15.74
2019-05-14T09:22:09.749Z,16.24
2019-05-14T09:24:34.290Z,16.43
2019-05-14T09:26:59.395Z,16.23
2019-05-14T09:29:26.035Z,16.67
2019-05-14T09:31:50.445Z,16.88
2019-05-14T09:34:15.074Z,16.84
2019-05-14T09:36:39.842Z,17.14
2019-05-14T09:39:06.071Z,16.87
2019-05-14T09:41:31.064Z,16.98
2019-05-14T09:43:55.554Z,17.38
2019-05-14T09:46:20.031Z,17.44
2019-05-14T09:48:44.471Z,17.37
2019-05-14T09:51:09.383Z,17.76
2019-05-14T09:53:34.038Z,17.73
2019-05-14T09:55:58.533Z,18.15
2019-05-14T09:58:23.018Z,18.05
2019-05-14T10:00:48.603Z,17.93
2019-05-14T10:03:13.145Z,17.39
2019-05-14T10:05:37.690Z,17.77
2019-05-14T10:08:02.225Z,17.43
2019-05-14T10:10:30.317Z,17.45
2019-05-14T10:12:57.047Z,16.88
2019-05-14T10:15:19.403Z,16.78
2019-05-14T10:17:43.988Z,17.09
2019-05-14T10:20:09.616Z,17.86
2019-05-14T10:22:34.135Z,17.89
2019-05-14T10:24:58.602Z,18.17
2019-05-14T10:27:23.055Z,17.99
2019-05-14T10:29:48.293Z,18.30
2019-05-14T10:32:12.743Z,18.08
2019-05-14T10:34:37.230Z,18.34
2019-05-14T10:37:01.788Z,18.60
2019-05-14T10:39:26.245Z,18.63
2019-05-14T10:41:56.560Z,18.83
2019-05-14T10:44:25.653Z,18.99
2019-05-14T10:46:50.127Z,19.06
2019-05-14T10:49:23.031Z,19.55
2019-05-14T10:51:40.735Z,19.13
2019-05-14T10:54:18.768Z,18.70
2019-05-14T10:56:31.475Z,18.96
2019-05-14T10:58:58.251Z,19.33
2019-05-14T11:01:22.972Z,18.53
2019-05-14T11:03:48.431Z,18.80
2019-05-14T11:06:13.148Z,18.54
2019-05-14T11:08:38.668Z,18.33
2019-05-14T11:11:04.391Z,18.69
2019-05-14T11:13:29.566Z,18.47
2019-05-14T11:15:54.076Z,18.34
2019-05-14T11:18:19.924Z,19.03
2019-05-14T11:20:44.573Z,19.18
2019-05-14T11:23:09.107Z,19.07
2019-05-14T11:25:33.694Z,18.83
2019-05-14T11:27:58.662Z,19.19
2019-05-14T11:30:23.824Z,19.07
2019-05-14T11:32:49.204Z,19.04
2019-05-14T11:35:14.449Z,19.43
2019-05-14T11:37:41.407Z,19.64
2019-05-14T11:40:08.844Z,19.65
2019-05-14T11:42:33.582Z,19.97
2019-05-14T11:44:58.302Z,19.99
2019-05-14T11:47:23.018Z,19.89
2019-05-14T11:49:49.217Z,20.33
2019-05-14T11:52:13.917Z,19.83
2019-05-14T11:54:40.954Z,19.14
2019-05-14T11:57:04.671Z,19.90
2019-05-14T11:59:29.114Z,19.69
2019-05-14T12:01:55.108Z,19.94
2019-05-14T12:04:20.174Z,20.41
2019-05-14T12:06:44.635Z,20.21
2019-05-14T12:09:11.852Z,20.42
2019-05-14T12:11:35.476Z,20.34
2019-05-14T12:14:00.119Z,20.61
2019-05-14T12:16:24.551Z,20.90
2019-05-14T12:18:49.010Z,19.56
2019-05-14T12:21:13.615Z,19.63
2019-05-14T12:23:39.303Z,19.96
2019-05-14T12:26:04.018Z,20.24
2019-05-14T12:28:29.267Z,20.60
2019-05-14T12:30:54.013Z,20.87
2019-05-14T12:33:19.659Z,20.54
2019-05-14T12:35:44.410Z,21.22
2019-05-14T12:38:10.039Z,21.01
2019-05-14T12:40:34.700Z,19.88
2019-05-14T12:42:59.475Z,20.39
2019-05-14T12:45:24.198Z,20.59
2019-05-14T12:47:50.079Z,20.73
2019-05-14T12:50:16.424Z,20.55
2019-05-14T12:52:51.038Z,20.60
2019-05-14T12:55:19.706Z,20.17
2019-05-14T12:57:48.588Z,20.26
2019-05-14T13:00:14.422Z,20.80
2019-05-14T13:02:38.898Z,21.10
2019-05-14T13:05:04.098Z,20.94
2019-05-14T13:07:28.663Z,20.62
2019-05-14T13:09:53.200Z,20.77
2019-05-14T13:12:18.966Z,20.49
2019-05-14T13:14:43.580Z,20.30
2019-05-14T13:17:09.295Z,20.10
2019-05-14T13:19:33.984Z,20.12
2019-05-14T13:22:12.282Z,20.24
2019-05-14T13:24:24.569Z,20.09
2019-05-14T13:26:49.653Z,19.97
2019-05-14T13:29:14.261Z,20.78
2019-05-14T13:31:38.835Z,20.76
2019-05-14T13:34:03.440Z,20.61
2019-05-14T13:36:28.906Z,20.71
2019-05-14T13:38:53.547Z,20.35
2019-05-14T13:41:19.355Z,20.15
2019-05-14T13:43:44.123Z,19.87
2019-05-14T13:46:10.338Z,20.39
2019-05-14T13:48:38.782Z,19.87
2019-05-14T13:51:01.006Z,20.19
2019-05-14T13:53:25.483Z,19.98
2019-05-14T13:55:57.226Z,20.43
2019-05-14T13:58:16.229Z,20.67
2019-05-14T14:00:40.789Z,20.32
2019-05-14T14:03:06.153Z,20.59
2019-05-14T14:05:38.890Z,19.84
2019-05-14T14:08:03.327Z,20.32
2019-05-14T14:10:35.377Z,20.80
2019-05-14T14:12:54.115Z,20.34
2019-05-14T14:15:18.703Z,20.70
2019-05-14T14:17:43.265Z,20.94
2019-05-14T14:20:08.469Z,20.95
2019-05-14T14:22:33.163Z,20.45
2019-05-14T14:24:59.256Z,20.18
2019-05-14T14:27:23.744Z,19.87
2019-05-14T14:29:49.322Z,19.29
2019-05-14T14:32:14.125Z,19.24
2019-05-14T14:34:43.741Z,20.27
2019-05-14T14:37:14.960Z,20.19
2019-05-14T14:39:48.632Z,20.98
2019-05-14T14:42:19.270Z,21.45
2019-05-14T14:44:49.812Z,20.87
2019-05-14T14:47:14.247Z,20.16
2019-05-14T14:49:43.144Z,21.12
2019-05-14T14:52:04.958Z,20.66
2019-05-14T14:54:29.674Z,20.02
2019-05-14T14:56:54.118Z,20.25
2019-05-14T14:59:19.103Z,20.19
2019-05-14T15:01:43.719Z,20.06
2019-05-14T15:04:13.735Z,19.89
2019-05-14T15:06:34.431Z,20.06
2019-05-14T15:08:59.016Z,20.21
2019-05-14T15:11:23.613Z,20.42
2019-05-14T15:13:48.425Z,20.02
2019-05-14T15:16:14.001Z,20.33
2019-05-14T15:18:38.913Z,20.21
2019-05-14T15:21:03.597Z,20.28
2019-05-14T15:23:28.742Z,20.35
2019-05-14T15:25:53.361Z,20.40
2019-05-14T15:28:18.989Z,19.75
2019-05-14T15:30:43.634Z,19.63
2019-05-14T15:33:09.173Z,19.38
2019-05-14T15:35:33.876Z,19.58
2019-05-14T15:37:58.966Z,20.03
2019-05-14T15:40:23.647Z,19.75
2019-05-14T15:42:49.802Z,19.91
2019-05-14T15:45:14.520Z,20.03
2019-05-14T15:47:39.790Z,19.93
2019-05-14T15:50:04.602Z,19.74
2019-05-14T15:52:29.421Z,20.11
2019-05-14T15:54:54.049Z,19.93
2019-05-14T15:57:19.406Z,20.05
2019-05-14T15:59:44.231Z,19.81
2019-05-14T16:02:09.538Z,19.80
2019-05-14T16:04:34.190Z,19.61
2019-05-14T16:06:58.770Z,19.16
2019-05-14T16:09:23.188Z,19.13
2019-05-14T16:11:48.297Z,19.00
2019-05-14T16:14:12.919Z,19.02
2019-05-14T16:16:39.197Z,19.11
2019-05-14T16:19:03.588Z,19.06
2019-05-14T16:21:28.857Z,19.10
2019-05-14T16:23:53.750Z,18.50
2019-05-14T16:26:18.826Z,19.21
2019-05-14T16:28:43.423Z,18.84
2019-05-14T16:31:08.573Z,19.05
2019-05-14T16:33:33.390Z,19.43
2019-05-14T16:35:58.142Z,19.68
2019-05-14T16:38:23.296Z,19.34
2019-05-14T16:40:48.932Z,19.29
2019-05-14T16:43:14.628Z,18.81
2019-05-14T16:45:39.724Z,18.54
2019-05-14T16:48:04.404Z,18.82
2019-05-14T16:50:28.893Z,18.87
2019-05-14T16:52:53.562Z,18.65
2019-05-14T16:55:26.482Z,18.44
2019-05-14T16:57:49.407Z,18.57
2019-05-14T17:00:18.479Z,18.52
2019-05-14T17:02:43.420Z,18.57
2019-05-14T17:05:11.227Z,18.62
2019-05-14T17:07:38.588Z,18.63
2019-05-14T17:10:08.332Z,18.77
2019-05-14T17:12:48.335Z,18.39
2019-05-14T17:14:58.743Z,17.91
2019-05-14T17:17:23.460Z,18.09
2019-05-14T17:19:48.136Z,17.90
2019-05-14T17:22:27.656Z,17.76
2019-05-14T17:24:40.142Z,17.71
2019-05-14T17:27:04.890Z,18.18
2019-05-14T17:29:29.464Z,18.21
2019-05-14T17:31:54.076Z,18.08
2019-05-14T17:34:18.793Z,18.05
2019-05-14T17:36:43.359Z,18.30
2019-05-14T17:39:09.256Z,18.24
2019-05-14T17:41:33.839Z,18.05
2019-05-14T17:43:58.667Z,17.90
2019-05-14T17:46:23.418Z,18.11
2019-05-14T17:48:48.671Z,17.65
2019-05-14T17:51:13.459Z,17.65
2019-05-14T17:53:38.520Z,17.83
2019-05-14T17:56:03.268Z,17.80
2019-05-14T17:58:28.764Z,17.81
2019-05-14T18:00:53.267Z,17.91
2019-05-14T18:03:18.444Z,17.92
2019-05-14T18:05:43.072Z,17.40
2019-05-14T18:08:09.304Z,17.18
2019-05-14T18:10:33.753Z,17.67
2019-05-14T18:12:59.740Z,17.66
2019-05-14T18:15:24.583Z,17.54
2019-05-14T18:17:49.651Z,17.48
2019-05-14T18:20:14.589Z,17.59
2019-05-14T18:22:42.564Z,17.01
2019-05-14T18:25:08.679Z,17.46
2019-05-14T18:27:33.199Z,17.39
2019-05-14T18:29:59.298Z,17.24
2019-05-14T18:32:24.084Z,17.39
2019-05-14T18:34:48.808Z,17.36
2019-05-14T18:37:13.989Z,17.06
2019-05-14T18:39:39.414Z,17.12
2019-05-14T18:42:04.122Z,17.09
2019-05-14T18:44:28.640Z,16.95
2019-05-14T18:46:53.132Z,16.76
2019-05-14T18:49:19.444Z,16.56
2019-05-14T18:51:43.982Z,16.83
2019-05-14T18:54:08.478Z,16.60
2019-05-14T18:56:33.083Z,16.60
2019-05-14T18:58:57.621Z,16.57
2019-05-14T19:01:22.149Z,16.53
2019-05-14T19:03:49.201Z,16.35
2019-05-14T19:06:12.924Z,16.36
2019-05-14T19:08:39.426Z,16.17
2019-05-14T19:11:03.646Z,16.18
2019-05-14T19:13:28.354Z,16.05
2019-05-14T19:15:52.774Z,16.07
2019-05-14T19:18:19.247Z,15.97
2019-05-14T19:20:43.441Z,15.96
2019-05-14T19:23:08.184Z,15.89
2019-05-14T19:25:32.656Z,15.81
2019-05-14T19:27:58.366Z,15.83
2019-05-14T19:30:23.064Z,15.74
2019-05-14T19:32:48.524Z,15.73
2019-05-14T19:35:14.904Z,15.55
2019-05-14T19:37:39.629Z,15.57
2019-05-14T19:40:06.302Z,15.38
2019-05-14T19:42:30.856Z,15.41
2019-05-14T19:44:55.314Z,15.29
2019-05-14T19:47:19.749Z,15.29
2019-05-14T19:49:44.448Z,15.11
2019-05-14T19:52:08.901Z,15.01
2019-05-14T19:54:33.379Z,15.03
2019-05-14T19:57:00.912Z,15.02
2019-05-14T19:59:25.944Z,15.01
2019-05-14T20:01:50.648Z,14.98
2019-05-14T20:04:15.182Z,14.99
2019-05-14T20:06:39.674Z,14.78
2019-05-14T20:09:05.963Z,14.77
2019-05-14T20:11:30.484Z,14.80
2019-05-14T20:13:55.023Z,14.76
2019-05-14T20:16:19.469Z,14.77
2019-05-14T20:18:44.008Z,14.70
2019-05-14T20:21:08.793Z,14.63
2019-05-14T20:23:33.451Z,14.62
2019-05-14T20:25:58.666Z,14.60
2019-05-14T20:28:28.348Z,14.56
2019-05-14T20:30:52.804Z,14.28
2019-05-14T20:33:19.077Z,14.38
2019-05-14T20:35:43.848Z,14.28
2019-05-14T20:38:09.031Z,14.34
2019-05-14T20:40:33.720Z,14.20
2019-05-14T20:42:58.887Z,14.14
2019-05-14T20:45:23.671Z,13.99
2019-05-14T20:47:48.308Z,13.99
2019-05-14T20:50:13.085Z,13.89
2019-05-14T20:52:37.694Z,13.83
2019-05-14T20:55:02.160Z,13.84
2019-05-14T20:57:31.217Z,13.89
2019-05-14T20:59:53.786Z,13.75
2019-05-14T21:02:18.759Z,13.84
2019-05-14T21:04:43.387Z,13.81
2019-05-14T21:07:08.354Z,13.73
2019-05-14T21:09:32.933Z,13.50
2019-05-14T21:11:57.486Z,13.59
2019-05-14T21:14:25.086Z,13.44
2019-05-14T21:16:48.954Z,13.50
2019-05-14T21:19:13.575Z,13.43
2019-05-14T21:21:38.480Z,13.38
2019-05-14T21:24:03.161Z,13.40
2019-05-14T21:26:29.251Z,13.41
2019-05-14T21:28:53.785Z,13.39
2019-05-14T21:31:18.295Z,13.32
2019-05-14T21:33:42.745Z,13.26
2019-05-14T21:36:09.448Z,13.10
2019-05-14T21:38:33.580Z,13.08
2019-05-14T21:40:58.322Z,13.18
2019-05-14T21:43:22.873Z,13.08
2019-05-14T21:45:48.945Z,12.98
2019-05-14T21:48:13.760Z,12.97
2019-05-14T21:50:38.817Z,12.95
2019-05-14T21:53:03.566Z,13.00
2019-05-14T21:55:28.884Z,12.70
2019-05-14T21:57:57.168Z,12.73
2019-05-14T22:00:38.726Z,12.85
2019-05-14T22:03:02.516Z,12.83
2019-05-14T22:05:28.469Z,12.55
2019-05-14T22:07:53.061Z,12.56
2019-05-14T22:10:19.051Z,12.51
2019-05-14T22:12:43.937Z,12.44
2019-05-14T22:15:09.045Z,12.61
2019-05-14T22:17:33.545Z,12.50
2019-05-14T22:19:58.418Z,12.26
2019-05-14T22:22:23.040Z,12.35
2019-05-14T22:24:48.928Z,12.42
2019-05-14T22:27:13.552Z,12.41
2019-05-14T22:29:38.007Z,12.35
2019-05-14T22:32:08.213Z,12.29
2019-05-14T22:34:38.524Z,12.10
2019-05-14T22:37:09.436Z,12.28
2019-05-14T22:39:33.992Z,12.20
2019-05-14T22:42:00.279Z,12.15
2019-05-14T22:44:24.823Z,12.20
2019-05-14T22:46:49.359Z,11.82
2019-05-14T22:49:13.885Z,11.88
2019-05-14T22:51:38.588Z,11.78
2019-05-14T22:54:03.097Z,11.80
2019-05-14T22:56:28.034Z,11.84
2019-05-14T22:58:52.930Z,11.86
2019-05-14T23:01:18.402Z,11.73
2019-05-14T23:03:43.220Z,11.74
2019-05-14T23:06:09.006Z,11.69
2019-05-14T23:08:33.612Z,11.79
2019-05-14T23:10:58.956Z,11.46
2019-05-14T23:13:23.684Z,11.56
2019-05-14T23:15:48.270Z,11.55
2019-05-14T23:18:12.742Z,11.40
2019-05-14T23:20:39.039Z,11.34
2019-05-14T23:23:03.414Z,11.36
2019-05-14T23:25:29.231Z,11.46
2019-05-14T23:27:54.022Z,11.24
2019-05-14T23:30:32.604Z,11.13
2019-05-14T23:32:57.160Z,11.16
2019-05-14T23:35:21.640Z,10.93
2019-05-14T23:37:48.631Z,10.75
2019-05-14T23:40:12.615Z,10.75
2019-05-14T23:42:39.257Z,10.66
2019-05-14T23:45:03.680Z,10.80
2019-05-14T23:47:28.900Z,10.79
2019-05-14T23:49:53.690Z,10.44
2019-05-14T23:52:19.356Z,10.56
2019-05-14T23:54:44.060Z,10.62
2019-05-14T23:57:08.969Z,10.43
2019-05-14T23:59:33.471Z,10.71
